Baltic Frost — 9HA2868 — position and weather

sailwx.info

Track history (hours):
 
Tides and Currents Weather Stations Pressure Air Temp Water Temp Dewpoint Dewpoint Depression Visibility Wind Speed Wind Dir Waves Ship Positions

Baltic Frost

Last reported at 2014-Sep-22 03:28 UTC. Time now 2014-Sep-22 04:18 UTC.
Position N 49°29' E 000°11'.

Length 182 m; draft 7 m.

Type: Ship. MMSI: 256495000.

Date/timePositionNaut miles runAvg speedWind from/ knotsBaromVisibWave heightAir tempDewpointWater temp
2014-Sep-22 03:28N 49°29' E 000°11'0 0.0
2014-Sep-22 02:31N 49°29' E 000°11'0 0.0
2014-Sep-22 01:33N 49°29' E 000°11'0 0.0
2014-Sep-22 00:33N 49°29' E 000°11'0 0.0
2014-Sep-21 23:33N 49°29' E 000°11'0 0.0
2014-Sep-21 22:29N 49°29' E 000°11'0 0.0
2014-Sep-21 21:32N 49°29' E 000°11'0 0.0
2014-Sep-21 20:31N 49°29' E 000°11'0 0.0
2014-Sep-21 19:22N 49°29' E 000°11'0 0.0
2014-Sep-21 18:33N 49°29' E 000°11'0 0.0
2014-Sep-21 17:33N 49°29' E 000°11'0 0.0
2014-Sep-21 16:33N 49°29' E 000°11'0 0.0
2014-Sep-21 15:29N 49°29' E 000°11'0 0.0
2014-Sep-21 14:26N 49°29' E 000°11'0 0.0
2014-Sep-21 13:31N 49°29' E 000°11'0 0.0
2014-Sep-21 12:31N 49°29' E 000°11'0 0.0
2014-Sep-21 11:18N 49°29' E 000°11'0 0.0
2014-Sep-21 10:33N 49°29' E 000°11'0 0.0
2014-Sep-21 09:33N 49°29' E 000°11'0 0.0
2014-Sep-21 08:32N 49°29' E 000°11'1 0.6
2014-Sep-21 07:33N 49°29' E 000°10'5 4.8
2014-Sep-21 06:33N 49°30' E 000°03'1010.1
2014-Sep-21 05:33N 49°34' W 000°11'5813.1
2014-Sep-21 01:07N 50°30' E 000°11'915.5
2014-Sep-21 00:33N 50°32' E 000°24'1514.7
2014-Sep-20 23:33N 50°39' E 000°45'3313.4
2014-Sep-20 21:05N 51°02' E 001°22'713.0
2014-Sep-20 20:33N 51°06' E 001°31'1413.9
2014-Sep-20 19:33N 51°16' E 001°47'1515.4
2014-Sep-20 18:33N 51°28' E 002°01'1615.8
2014-Sep-20 17:33N 51°40' E 002°18'1515.5
2014-Sep-20 16:33N 51°52' E 002°34'42 4.4
2014-Sep-20 07:05N 52°12' E 003°34'0 0.0
2014-Sep-20 05:25N 52°12' E 003°34'0 0.0
2014-Sep-20 04:31N 52°12' E 003°34'0 0.0
2014-Sep-20 03:25N 52°12' E 003°34'0 0.1
2014-Sep-20 02:18N 52°12' E 003°34'0 0.0
2014-Sep-20 00:23N 52°12' E 003°34'0 0.0
2014-Sep-19 23:23N 52°12' E 003°34'0 0.1
2014-Sep-19 21:16N 52°12' E 003°34'0 0.1
2014-Sep-19 20:31N 52°12' E 003°34'0 0.0
2014-Sep-19 19:27N 52°12' E 003°34'0 0.0
2014-Sep-19 18:27N 52°12' E 003°34'0 0.0
2014-Sep-19 17:32N 52°12' E 003°34'0 0.0
2014-Sep-19 15:22N 52°12' E 003°34'0 0.1
2014-Sep-19 12:24N 52°12' E 003°34'0 0.0
2014-Sep-19 08:28N 52°12' E 003°34'0 0.0
2014-Sep-19 07:19N 52°12' E 003°34'0 0.0
2014-Sep-19 06:21N 52°12' E 003°34'0 0.0
2014-Sep-19 05:33N 52°12' E 003°34'0 0.0
2014-Sep-19 04:15N 52°12' E 003°34'0 0.0
2014-Sep-19 03:29N 52°12' E 003°34'0 0.0
2014-Sep-19 02:14N 52°12' E 003°34'0 0.1
2014-Sep-19 00:31N 52°12' E 003°34'0 0.0
2014-Sep-18 23:25N 52°12' E 003°34'0 0.0
2014-Sep-18 22:31N 52°12' E 003°34'0 0.0
2014-Sep-18 21:22N 52°12' E 003°34'0 0.1
2014-Sep-18 20:33N 52°12' E 003°34'0 0.2
2014-Sep-18 19:33N 52°12' E 003°34'0 0.0
2014-Sep-18 16:22N 52°12' E 003°34'0 0.0
2014-Sep-18 14:03N 52°12' E 003°34'0 0.0
2014-Sep-18 13:33N 52°12' E 003°34'0 0.1
2014-Sep-18 11:14N 52°12' E 003°34'0 0.0
2014-Sep-18 10:29N 52°12' E 003°34'2 1.8
2014-Sep-18 09:34N 52°13' E 003°31'1312.9
2014-Sep-18 08:33N 52°18' E 003°12'1010.3
2014-Sep-18 07:33N 52°08' E 003°07'1413.7
2014-Sep-18 06:33N 51°57' E 002°54'1313.0
2014-Sep-18 05:33N 51°47' E 002°39'1111.1
2014-Sep-18 04:33N 51°39' E 002°28'1110.8
2014-Sep-18 03:33N 51°31' E 002°17'1010.3
2014-Sep-18 02:34N 51°21' E 002°09'1010.0
2014-Sep-18 01:33N 51°13' E 002°02'1010.5
2014-Sep-18 00:34N 51°07' E 001°48'1010.4
2014-Sep-17 23:33N 50°60' E 001°36'1110.8
2014-Sep-17 22:33N 50°51' E 001°26'1211.2
2014-Sep-17 21:30N 50°40' E 001°18'1011.0
2014-Sep-17 20:33N 50°34' E 001°05'1110.4
2014-Sep-17 19:28N 50°28' E 000°50'1010.4
2014-Sep-17 18:33N 50°26' E 000°35'1010.4
2014-Sep-17 17:33N 50°23' E 000°20'287 9.5
2014-Sep-16 11:23N 47°58' W 005°59'1 0.8
2014-Sep-16 10:33N 47°58' W 005°60'17712.3
2014-Sep-15 20:09N 45°05' W 006°60'811.6
2014-Sep-15 19:28N 44°58' W 007°02'1311.6
2014-Sep-15 18:23N 44°46' W 007°06'2211.6
2014-Sep-15 16:30N 44°24' W 007°13'  
Track history (hours):
 
Tides and Currents Weather Stations Pressure Air Temp Water Temp Dewpoint Dewpoint Depression Visibility Wind Speed Wind Dir Waves Ship Positions

Baltic Frost

Last reported at 2014-Sep-22 03:28 UTC. Time now 2014-Sep-22 04:18 UTC.
Position N 49°29' E 000°11'.

Length 182 m; draft 7 m.

Type: Ship. MMSI: 256495000.

Date/timePositionNaut miles runAvg speedWind from/ knotsBaromVisibWave heightAir tempDewpointWater temp
2014-Sep-22 03:28N 49°29' E 000°11'0 0.0
2014-Sep-22 02:31N 49°29' E 000°11'0 0.0
2014-Sep-22 01:33N 49°29' E 000°11'0 0.0
2014-Sep-22 00:33N 49°29' E 000°11'0 0.0
2014-Sep-21 23:33N 49°29' E 000°11'0 0.0
2014-Sep-21 22:29N 49°29' E 000°11'0 0.0
2014-Sep-21 21:32N 49°29' E 000°11'0 0.0
2014-Sep-21 20:31N 49°29' E 000°11'0 0.0
2014-Sep-21 19:22N 49°29' E 000°11'0 0.0
2014-Sep-21 18:33N 49°29' E 000°11'0 0.0
2014-Sep-21 17:33N 49°29' E 000°11'0 0.0
2014-Sep-21 16:33N 49°29' E 000°11'0 0.0
2014-Sep-21 15:29N 49°29' E 000°11'0 0.0
2014-Sep-21 14:26N 49°29' E 000°11'0 0.0
2014-Sep-21 13:31N 49°29' E 000°11'0 0.0
2014-Sep-21 12:31N 49°29' E 000°11'0 0.0
2014-Sep-21 11:18N 49°29' E 000°11'0 0.0
2014-Sep-21 10:33N 49°29' E 000°11'0 0.0
2014-Sep-21 09:33N 49°29' E 000°11'0 0.0
2014-Sep-21 08:32N 49°29' E 000°11'1 0.6
2014-Sep-21 07:33N 49°29' E 000°10'5 4.8
2014-Sep-21 06:33N 49°30' E 000°03'1010.1
2014-Sep-21 05:33N 49°34' W 000°11'5813.1
2014-Sep-21 01:07N 50°30' E 000°11'915.5
2014-Sep-21 00:33N 50°32' E 000°24'1514.7
2014-Sep-20 23:33N 50°39' E 000°45'3313.4
2014-Sep-20 21:05N 51°02' E 001°22'713.0
2014-Sep-20 20:33N 51°06' E 001°31'1413.9
2014-Sep-20 19:33N 51°16' E 001°47'1515.4
2014-Sep-20 18:33N 51°28' E 002°01'1615.8
2014-Sep-20 17:33N 51°40' E 002°18'1515.5
2014-Sep-20 16:33N 51°52' E 002°34'42 4.4
2014-Sep-20 07:05N 52°12' E 003°34'0 0.0
2014-Sep-20 05:25N 52°12' E 003°34'0 0.0
2014-Sep-20 04:31N 52°12' E 003°34'0 0.0
2014-Sep-20 03:25N 52°12' E 003°34'0 0.1
2014-Sep-20 02:18N 52°12' E 003°34'0 0.0
2014-Sep-20 00:23N 52°12' E 003°34'0 0.0
2014-Sep-19 23:23N 52°12' E 003°34'0 0.1
2014-Sep-19 21:16N 52°12' E 003°34'0 0.1
2014-Sep-19 20:31N 52°12' E 003°34'0 0.0
2014-Sep-19 19:27N 52°12' E 003°34'0 0.0
2014-Sep-19 18:27N 52°12' E 003°34'0 0.0
2014-Sep-19 17:32N 52°12' E 003°34'0 0.0
2014-Sep-19 15:22N 52°12' E 003°34'0 0.1
2014-Sep-19 12:24N 52°12' E 003°34'0 0.0
2014-Sep-19 08:28N 52°12' E 003°34'0 0.0
2014-Sep-19 07:19N 52°12' E 003°34'0 0.0
2014-Sep-19 06:21N 52°12' E 003°34'0 0.0
2014-Sep-19 05:33N 52°12' E 003°34'0 0.0
2014-Sep-19 04:15N 52°12' E 003°34'0 0.0
2014-Sep-19 03:29N 52°12' E 003°34'0 0.0
2014-Sep-19 02:14N 52°12' E 003°34'0 0.1
2014-Sep-19 00:31N 52°12' E 003°34'0 0.0
2014-Sep-18 23:25N 52°12' E 003°34'0 0.0
2014-Sep-18 22:31N 52°12' E 003°34'0 0.0
2014-Sep-18 21:22N 52°12' E 003°34'0 0.1
2014-Sep-18 20:33N 52°12' E 003°34'0 0.2
2014-Sep-18 19:33N 52°12' E 003°34'0 0.0
2014-Sep-18 16:22N 52°12' E 003°34'0 0.0
2014-Sep-18 14:03N 52°12' E 003°34'0 0.0
2014-Sep-18 13:33N 52°12' E 003°34'0 0.1
2014-Sep-18 11:14N 52°12' E 003°34'0 0.0
2014-Sep-18 10:29N 52°12' E 003°34'2 1.8
2014-Sep-18 09:34N 52°13' E 003°31'1312.9
2014-Sep-18 08:33N 52°18' E 003°12'1010.3
2014-Sep-18 07:33N 52°08' E 003°07'1413.7
2014-Sep-18 06:33N 51°57' E 002°54'1313.0
2014-Sep-18 05:33N 51°47' E 002°39'1111.1
2014-Sep-18 04:33N 51°39' E 002°28'1110.8
2014-Sep-18 03:33N 51°31' E 002°17'1010.3
2014-Sep-18 02:34N 51°21' E 002°09'1010.0
2014-Sep-18 01:33N 51°13' E 002°02'1010.5
2014-Sep-18 00:34N 51°07' E 001°48'1010.4
2014-Sep-17 23:33N 50°60' E 001°36'1110.8
2014-Sep-17 22:33N 50°51' E 001°26'1211.2
2014-Sep-17 21:30N 50°40' E 001°18'1011.0
2014-Sep-17 20:33N 50°34' E 001°05'1110.4
2014-Sep-17 19:28N 50°28' E 000°50'1010.4
2014-Sep-17 18:33N 50°26' E 000°35'1010.4
2014-Sep-17 17:33N 50°23' E 000°20'287 9.5
2014-Sep-16 11:23N 47°58' W 005°59'1 0.8
2014-Sep-16 10:33N 47°58' W 005°60'17712.3
2014-Sep-15 20:09N 45°05' W 006°60'811.6
2014-Sep-15 19:28N 44°58' W 007°02'1311.6
2014-Sep-15 18:23N 44°46' W 007°06'2211.6
2014-Sep-15 16:30N 44°24' W 007°13'  

Dump ship's entire track history